createdAt,value
2022-12-27T00:00:03.099Z,3.60
2022-12-27T00:02:31.471Z,3.55
2022-12-27T00:05:02.958Z,3.51
2022-12-27T00:07:31.337Z,3.57
2022-12-27T00:10:00.055Z,3.43
2022-12-27T00:12:30.095Z,3.50
2022-12-27T00:14:58.506Z,3.51
2022-12-27T00:17:29.957Z,3.61
2022-12-27T00:20:01.172Z,3.56
2022-12-27T00:22:33.890Z,3.63
2022-12-27T00:25:02.678Z,3.57
2022-12-27T00:27:34.696Z,3.63
2022-12-27T00:30:03.438Z,3.54
2022-12-27T00:32:31.848Z,3.49
2022-12-27T00:35:00.199Z,3.50
2022-12-27T00:37:29.019Z,3.48
2022-12-27T00:39:58.627Z,3.43
2022-12-27T00:42:29.056Z,3.33
2022-12-27T00:44:58.763Z,3.48
2022-12-27T00:47:30.939Z,3.30
2022-12-27T00:50:01.963Z,3.53
2022-12-27T00:52:30.236Z,3.38
2022-12-27T00:55:00.320Z,3.40
2022-12-27T00:57:30.427Z,3.34
2022-12-27T01:00:09.572Z,3.40
2022-12-27T01:02:40.514Z,3.34
2022-12-27T01:05:10.577Z,3.42
2022-12-27T01:07:38.939Z,3.50
2022-12-27T01:10:07.963Z,3.37
2022-12-27T01:12:37.682Z,3.52
2022-12-27T01:15:11.052Z,3.61
2022-12-27T01:17:39.342Z,3.36
2022-12-27T01:20:09.349Z,3.32
2022-12-27T01:22:37.831Z,3.50
2022-12-27T01:25:06.906Z,3.52
2022-12-27T01:27:37.393Z,3.40
2022-12-27T01:30:10.811Z,3.56
2022-12-27T01:32:39.359Z,3.57
2022-12-27T01:35:08.426Z,3.39
2022-12-27T01:37:37.581Z,3.38
2022-12-27T01:40:07.241Z,3.50
2022-12-27T01:42:52.500Z,3.68
2022-12-27T01:45:25.987Z,3.61
2022-12-27T01:48:05.229Z,3.65
2022-12-27T01:50:38.052Z,3.60
2022-12-27T01:53:14.502Z,3.58
2022-12-27T01:55:49.452Z,3.60
2022-12-27T01:58:23.478Z,3.62
2022-12-27T02:00:53.863Z,3.62
2022-12-27T02:03:28.126Z,3.58
2022-12-27T02:05:58.255Z,3.55
2022-12-27T02:08:46.793Z,3.63
2022-12-27T02:11:16.975Z,3.58
2022-12-27T02:13:47.844Z,3.65
2022-12-27T02:16:20.528Z,3.78
2022-12-27T02:18:49.039Z,3.72
2022-12-27T02:21:42.688Z,3.85
2022-12-27T02:24:55.379Z,3.71
2022-12-27T02:27:46.725Z,3.75
2022-12-27T02:30:17.160Z,3.73
2022-12-27T02:32:51.584Z,3.72
2022-12-27T02:35:25.912Z,3.76
2022-12-27T02:38:00.296Z,3.77
2022-12-27T02:40:47.796Z,3.69
2022-12-27T02:43:34.290Z,3.68
2022-12-27T02:46:24.964Z,3.63
2022-12-27T02:49:11.968Z,3.66
2022-12-27T02:52:11.433Z,3.75
2022-12-27T02:55:01.318Z,3.65
2022-12-27T02:57:38.666Z,3.60
2022-12-27T03:00:29.502Z,3.74
2022-12-27T03:03:24.045Z,3.61
2022-12-27T03:06:42.980Z,3.65
2022-12-27T03:10:08.897Z,3.53
2022-12-27T03:13:08.131Z,3.59
2022-12-27T03:15:59.016Z,3.60
2022-12-27T03:18:39.731Z,3.65
2022-12-27T03:21:30.006Z,3.64
2022-12-27T03:24:21.881Z,3.63
2022-12-27T03:26:55.128Z,3.59
2022-12-27T03:29:42.030Z,3.54
2022-12-27T03:32:29.769Z,3.56
2022-12-27T03:35:11.426Z,3.52
2022-12-27T03:38:03.428Z,3.62
2022-12-27T03:41:02.821Z,3.50
2022-12-27T03:43:31.262Z,3.51
2022-12-27T03:46:18.743Z,3.52
2022-12-27T03:48:56.843Z,3.60
2022-12-27T03:51:29.146Z,3.61
2022-12-27T03:54:04.982Z,3.53
2022-12-27T03:56:33.601Z,3.58
2022-12-27T03:59:03.751Z,3.65
2022-12-27T04:01:32.023Z,3.53
2022-12-27T04:04:00.249Z,3.64
2022-12-27T04:06:30.269Z,3.65
2022-12-27T04:09:16.683Z,3.68
2022-12-27T04:12:02.155Z,3.67
2022-12-27T04:14:47.873Z,3.65
2022-12-27T04:17:33.712Z,3.68
2022-12-27T04:20:19.197Z,3.58
2022-12-27T04:23:06.311Z,3.63
2022-12-27T04:25:52.331Z,3.68
2022-12-27T04:28:38.061Z,3.64
2022-12-27T04:31:26.718Z,3.68
2022-12-27T04:34:12.233Z,3.85
2022-12-27T04:36:40.866Z,3.85
2022-12-27T04:39:10.811Z,3.73
2022-12-27T04:41:58.445Z,3.76
2022-12-27T04:44:58.603Z,3.76
2022-12-27T04:47:45.827Z,3.83
2022-12-27T04:50:40.634Z,3.70
2022-12-27T04:53:29.881Z,3.74
2022-12-27T04:56:00.137Z,3.83
2022-12-27T04:58:29.169Z,3.78
2022-12-27T05:01:18.031Z,3.81
2022-12-27T05:03:48.168Z,3.84
2022-12-27T05:06:17.080Z,3.86
2022-12-27T05:09:02.841Z,3.83
2022-12-27T05:11:51.776Z,3.93
2022-12-27T05:14:19.973Z,3.83
2022-12-27T05:16:48.771Z,3.77
2022-12-27T05:19:16.995Z,3.79
2022-12-27T05:22:07.195Z,3.87
2022-12-27T05:24:53.002Z,3.84
2022-12-27T05:27:22.830Z,3.83
2022-12-27T05:29:51.013Z,3.85
2022-12-27T05:32:20.893Z,3.87
2022-12-27T05:34:49.242Z,3.89
2022-12-27T05:37:17.648Z,3.83
2022-12-27T05:39:47.533Z,3.82
2022-12-27T05:42:15.705Z,3.91
2022-12-27T05:44:45.518Z,3.87
2022-12-27T05:47:13.731Z,3.93
2022-12-27T05:49:42.394Z,3.88
2022-12-27T05:52:11.103Z,4.00
2022-12-27T05:54:39.715Z,3.95
2022-12-27T05:57:07.950Z,3.97
2022-12-27T05:59:37.817Z,3.98
2022-12-27T06:02:08.130Z,3.91
2022-12-27T06:04:40.159Z,3.94
2022-12-27T06:07:08.689Z,3.93
2022-12-27T06:09:37.224Z,4.02
2022-12-27T06:12:05.997Z,3.94
2022-12-27T06:14:36.242Z,4.07
2022-12-27T06:17:05.509Z,4.06
2022-12-27T06:19:37.550Z,4.08
2022-12-27T06:22:06.889Z,4.13
2022-12-27T06:24:36.791Z,4.11
2022-12-27T06:27:08.756Z,4.02
2022-12-27T06:29:40.840Z,4.05
2022-12-27T06:32:09.314Z,4.03
2022-12-27T06:34:39.357Z,4.03
2022-12-27T06:37:09.302Z,3.97
2022-12-27T06:39:37.620Z,4.02
2022-12-27T06:42:08.979Z,4.05
2022-12-27T06:44:37.937Z,4.14
2022-12-27T06:47:07.532Z,4.09
2022-12-27T06:49:35.811Z,4.18
2022-12-27T06:52:06.270Z,4.17
2022-12-27T06:54:35.194Z,4.22
2022-12-27T06:57:03.531Z,4.24
2022-12-27T06:59:31.913Z,4.20
2022-12-27T07:02:00.632Z,4.21
2022-12-27T07:04:29.372Z,4.23
2022-12-27T07:06:57.852Z,4.29
2022-12-27T07:09:27.699Z,4.21
2022-12-27T07:11:56.399Z,4.23
2022-12-27T07:14:24.944Z,4.14
2022-12-27T07:16:55.042Z,4.16
2022-12-27T07:19:23.396Z,4.08
2022-12-27T07:21:51.817Z,4.11
2022-12-27T07:24:22.511Z,4.18
2022-12-27T07:26:52.595Z,4.12
2022-12-27T07:29:26.464Z,4.11
2022-12-27T07:31:57.282Z,4.10
2022-12-27T07:34:26.226Z,4.05
2022-12-27T07:36:54.745Z,4.00
2022-12-27T07:39:23.134Z,4.02
2022-12-27T07:41:53.454Z,4.15
2022-12-27T07:44:21.866Z,4.16
2022-12-27T07:46:50.666Z,4.00
2022-12-27T07:49:19.529Z,4.04
2022-12-27T07:51:47.964Z,4.06
2022-12-27T07:54:16.590Z,4.10
2022-12-27T07:56:44.891Z,3.94
2022-12-27T07:59:16.697Z,4.03
2022-12-27T08:01:59.815Z,3.95
2022-12-27T08:04:28.342Z,3.97
2022-12-27T08:07:02.196Z,3.97
2022-12-27T08:09:34.229Z,3.92
2022-12-27T08:12:02.659Z,4.01
2022-12-27T08:14:33.754Z,3.95
2022-12-27T08:17:07.433Z,4.00
2022-12-27T08:19:36.419Z,4.19
2022-12-27T08:22:06.821Z,4.09
2022-12-27T08:24:37.264Z,4.10
2022-12-27T08:27:06.140Z,4.10
2022-12-27T08:29:38.009Z,4.20
2022-12-27T08:32:06.850Z,4.13
2022-12-27T08:34:35.251Z,4.19
2022-12-27T08:37:05.072Z,4.21
2022-12-27T08:39:34.813Z,4.50
2022-12-27T08:42:03.081Z,4.60
2022-12-27T08:44:31.738Z,4.63
2022-12-27T08:47:01.519Z,4.73
2022-12-27T08:49:32.752Z,4.91
2022-12-27T08:52:01.087Z,4.88
2022-12-27T08:54:30.520Z,4.79
2022-12-27T08:56:59.721Z,4.74
2022-12-27T08:59:29.848Z,4.67
2022-12-27T09:01:59.205Z,4.45
2022-12-27T09:04:29.262Z,4.50
2022-12-27T09:06:57.578Z,4.46
2022-12-27T09:09:26.591Z,4.69
2022-12-27T09:11:54.993Z,4.82
2022-12-27T09:14:23.495Z,4.93
2022-12-27T09:16:51.919Z,4.97
2022-12-27T09:19:20.530Z,5.06
2022-12-27T09:21:50.521Z,4.96
2022-12-27T09:24:19.183Z,5.09
2022-12-27T09:26:47.916Z,5.12
2022-12-27T09:29:16.683Z,5.14
2022-12-27T09:31:46.562Z,5.13
2022-12-27T09:34:16.755Z,5.24
2022-12-27T09:36:45.688Z,5.37
2022-12-27T09:39:21.265Z,5.53
2022-12-27T09:44:53.317Z,5.85
2022-12-27T09:47:26.418Z,6.05
2022-12-27T09:50:00.604Z,5.82
2022-12-27T09:52:34.321Z,5.86
2022-12-27T09:55:09.913Z,6.01
2022-12-27T09:57:40.966Z,6.10
2022-12-27T10:00:16.831Z,6.12
2022-12-27T10:02:46.330Z,6.19
2022-12-27T10:05:23.961Z,6.16
2022-12-27T10:08:21.470Z,6.01
2022-12-27T10:11:00.409Z,5.94
2022-12-27T10:13:43.836Z,5.96
2022-12-27T10:16:24.619Z,6.29
2022-12-27T10:19:07.236Z,6.47
2022-12-27T10:21:43.151Z,6.28
2022-12-27T10:24:22.674Z,6.60
2022-12-27T10:26:55.684Z,6.87
2022-12-27T10:29:28.279Z,6.94
2022-12-27T10:31:56.801Z,6.60
2022-12-27T10:34:28.742Z,6.57
2022-12-27T10:36:57.070Z,6.27
2022-12-27T10:39:29.597Z,6.48
2022-12-27T10:42:10.118Z,6.62
2022-12-27T10:44:38.666Z,6.59
2022-12-27T10:47:07.391Z,6.38
2022-12-27T10:49:37.453Z,6.35
2022-12-27T10:52:11.513Z,6.47
2022-12-27T10:54:53.681Z,6.57
2022-12-27T10:57:29.773Z,6.67
2022-12-27T11:00:20.085Z,6.81
2022-12-27T11:02:53.944Z,6.46
2022-12-27T11:05:25.132Z,6.45
2022-12-27T11:07:55.189Z,6.38
2022-12-27T11:10:25.845Z,6.71
2022-12-27T11:13:02.743Z,6.67
2022-12-27T11:15:35.107Z,6.87
2022-12-27T11:18:10.870Z,7.00
2022-12-27T11:20:41.048Z,7.00
2022-12-27T11:23:16.645Z,7.02
2022-12-27T11:25:54.850Z,7.43
2022-12-27T11:28:33.658Z,7.78
2022-12-27T11:31:07.414Z,7.41
2022-12-27T11:33:40.046Z,7.52
2022-12-27T11:36:10.369Z,7.60
2022-12-27T11:38:40.723Z,7.65
2022-12-27T11:41:13.490Z,7.85
2022-12-27T11:43:52.120Z,8.22
2022-12-27T11:46:28.728Z,8.70
2022-12-27T11:49:00.675Z,8.68
2022-12-27T11:51:52.345Z,9.21
2022-12-27T11:54:41.695Z,8.37
2022-12-27T11:57:21.622Z,8.04
2022-12-27T12:00:15.137Z,7.78
2022-12-27T12:02:57.499Z,7.40
2022-12-27T12:05:49.353Z,7.82
2022-12-27T12:08:33.721Z,7.89
2022-12-27T12:11:11.154Z,7.41
2022-12-27T12:13:58.636Z,7.32
2022-12-27T12:17:04.385Z,7.59
2022-12-27T12:19:56.350Z,8.04
2022-12-27T12:22:39.585Z,8.45
2022-12-27T12:25:35.958Z,8.41
2022-12-27T12:28:58.318Z,7.53
2022-12-27T12:31:40.922Z,7.98
2022-12-27T12:34:30.495Z,8.55
2022-12-27T12:37:19.367Z,9.00
2022-12-27T12:40:08.647Z,8.77
2022-12-27T12:42:47.374Z,9.25
2022-12-27T12:45:44.252Z,9.94
2022-12-27T12:48:53.924Z,10.25
2022-12-27T12:51:45.580Z,9.48
2022-12-27T12:54:42.051Z,9.50
2022-12-27T12:57:30.097Z,8.79
2022-12-27T13:00:09.396Z,8.20
2022-12-27T13:03:14.952Z,7.62
2022-12-27T13:05:49.457Z,7.62
2022-12-27T13:08:28.713Z,7.24
2022-12-27T13:11:29.747Z,7.33
2022-12-27T13:14:29.010Z,7.09
2022-12-27T13:17:05.090Z,7.04
2022-12-27T13:19:48.680Z,7.30
2022-12-27T13:22:27.441Z,6.98
2022-12-27T13:25:10.676Z,6.73
2022-12-27T13:27:49.423Z,6.85
2022-12-27T13:30:21.777Z,6.87
2022-12-27T13:33:06.915Z,7.14
2022-12-27T13:35:47.226Z,6.81
2022-12-27T13:38:28.754Z,6.79
2022-12-27T13:41:32.997Z,6.70
2022-12-27T13:44:21.322Z,6.70
2022-12-27T13:47:04.657Z,6.84
2022-12-27T13:49:55.128Z,6.67
2022-12-27T13:52:41.154Z,6.69
2022-12-27T13:55:36.737Z,6.63
2022-12-27T13:58:42.929Z,6.70
2022-12-27T14:01:38.600Z,6.86
2022-12-27T14:04:26.326Z,6.96
2022-12-27T14:07:14.748Z,6.94
2022-12-27T14:10:13.532Z,7.25
2022-12-27T14:12:56.690Z,7.49
2022-12-27T14:15:42.439Z,7.62
2022-12-27T14:18:31.976Z,7.46
2022-12-27T14:21:18.762Z,7.79
2022-12-27T14:24:12.298Z,8.94
2022-12-27T14:27:35.289Z,9.35
2022-12-27T14:30:39.879Z,8.99
2022-12-27T14:33:53.541Z,9.09
2022-12-27T14:37:06.206Z,8.78
2022-12-27T14:40:02.322Z,8.96
2022-12-27T14:43:05.110Z,9.41
2022-12-27T14:46:02.174Z,9.29
2022-12-27T14:49:27.758Z,9.24
2022-12-27T14:52:45.217Z,8.85
2022-12-27T14:55:45.318Z,8.88
2022-12-27T14:58:33.104Z,8.59
2022-12-27T15:01:12.571Z,8.47
2022-12-27T15:04:00.450Z,7.91
2022-12-27T15:06:49.612Z,7.42
2022-12-27T15:09:33.228Z,7.23
2022-12-27T15:12:14.868Z,7.04
2022-12-27T15:15:02.059Z,6.66
2022-12-27T15:17:47.723Z,6.56
2022-12-27T15:20:59.925Z,6.51
2022-12-27T15:23:36.088Z,6.27
2022-12-27T15:26:22.319Z,6.11
2022-12-27T15:29:17.598Z,6.00
2022-12-27T15:32:06.076Z,5.88
2022-12-27T15:34:53.486Z,5.85
2022-12-27T15:37:55.908Z,5.81
2022-12-27T15:40:38.912Z,5.83
2022-12-27T15:43:23.498Z,5.68
2022-12-27T15:46:09.308Z,5.66
2022-12-27T15:49:00.685Z,5.69
2022-12-27T15:51:39.717Z,5.68
2022-12-27T15:54:33.384Z,5.62
2022-12-27T15:57:32.988Z,5.53
2022-12-27T16:00:16.973Z,5.44
2022-12-27T16:02:56.712Z,5.53
2022-12-27T16:05:50.236Z,5.47
2022-12-27T16:08:37.890Z,5.43
2022-12-27T16:11:14.111Z,5.44
2022-12-27T16:13:48.847Z,5.41
2022-12-27T16:16:57.678Z,5.45
2022-12-27T16:19:55.284Z,5.43
2022-12-27T16:22:35.219Z,5.40
2022-12-27T16:25:30.996Z,5.51
2022-12-27T16:28:03.748Z,5.44
2022-12-27T16:30:42.023Z,5.45
2022-12-27T16:33:23.932Z,5.38
2022-12-27T16:36:20.657Z,5.51
2022-12-27T16:39:13.910Z,5.43
2022-12-27T16:42:05.017Z,5.51
2022-12-27T16:44:47.871Z,5.30
2022-12-27T16:47:44.989Z,5.42
2022-12-27T16:50:50.258Z,5.37
2022-12-27T16:53:41.338Z,5.43
2022-12-27T16:56:22.635Z,5.25
2022-12-27T16:58:51.365Z,5.29
2022-12-27T17:02:03.753Z,5.28
2022-12-27T17:04:58.620Z,5.24
2022-12-27T17:07:52.377Z,5.12
2022-12-27T17:11:02.612Z,5.13
2022-12-27T17:13:44.219Z,5.11
2022-12-27T17:16:24.250Z,5.03
2022-12-27T17:18:58.079Z,4.99
2022-12-27T17:21:32.993Z,5.03
2022-12-27T17:24:10.932Z,5.00
2022-12-27T17:27:06.697Z,4.78
2022-12-27T17:30:04.447Z,4.92
2022-12-27T17:32:50.971Z,4.73
2022-12-27T17:35:30.779Z,4.85
2022-12-27T17:38:14.024Z,4.96
2022-12-27T17:40:51.872Z,4.96
2022-12-27T17:43:50.062Z,4.94
2022-12-27T17:46:33.614Z,4.98
2022-12-27T17:49:03.294Z,4.95
2022-12-27T17:51:35.821Z,4.95
2022-12-27T17:54:40.576Z,4.95
2022-12-27T17:57:30.032Z,4.87
2022-12-27T17:59:59.576Z,4.78
2022-12-27T18:02:32.713Z,4.88
2022-12-27T18:05:05.521Z,4.73
2022-12-27T18:07:35.539Z,4.77
2022-12-27T18:10:09.346Z,4.80
2022-12-27T18:12:40.242Z,4.60
2022-12-27T18:15:14.698Z,4.51
2022-12-27T18:17:48.943Z,4.46
2022-12-27T18:20:31.427Z,4.47
2022-12-27T18:23:15.970Z,4.53
2022-12-27T18:25:53.426Z,4.61
2022-12-27T18:28:30.501Z,4.45
2022-12-27T18:31:09.378Z,4.50
2022-12-27T18:33:44.893Z,4.66
2022-12-27T18:36:17.495Z,4.81
2022-12-27T18:38:51.005Z,4.73
2022-12-27T18:41:23.558Z,4.89
2022-12-27T18:43:58.841Z,4.80
2022-12-27T18:46:31.675Z,4.83
2022-12-27T18:49:04.272Z,4.98
2022-12-27T18:51:34.828Z,5.01
2022-12-27T18:54:03.885Z,5.01
2022-12-27T18:56:37.150Z,4.94
2022-12-27T18:59:18.396Z,5.03
2022-12-27T19:01:48.511Z,5.09
2022-12-27T19:04:25.181Z,5.11
2022-12-27T19:06:58.593Z,5.26
2022-12-27T19:09:29.372Z,5.07
2022-12-27T19:12:00.508Z,5.06
2022-12-27T19:14:39.593Z,5.11
2022-12-27T19:17:11.213Z,4.97
2022-12-27T19:19:41.459Z,4.81
2022-12-27T19:22:34.534Z,4.74
2022-12-27T19:25:04.838Z,4.71
2022-12-27T19:27:33.827Z,4.51
2022-12-27T19:30:02.703Z,4.61
2022-12-27T19:32:34.633Z,4.42
2022-12-27T19:35:06.255Z,4.25
2022-12-27T19:37:39.677Z,4.10
2022-12-27T19:40:09.401Z,4.03
2022-12-27T19:42:37.753Z,3.96
2022-12-27T19:45:06.797Z,3.81
2022-12-27T19:47:36.560Z,3.83
2022-12-27T19:50:06.884Z,3.64
2022-12-27T19:52:36.386Z,3.71
2022-12-27T19:55:07.757Z,3.60
2022-12-27T19:57:36.833Z,3.54
2022-12-27T20:00:15.926Z,3.57
2022-12-27T20:02:44.332Z,3.56
2022-12-27T20:05:15.484Z,3.61
2022-12-27T20:07:44.275Z,3.56
2022-12-27T20:10:18.194Z,3.56
2022-12-27T20:12:46.570Z,3.53
2022-12-27T20:15:15.366Z,3.57
2022-12-27T20:17:45.462Z,3.52
2022-12-27T20:20:15.379Z,3.54
2022-12-27T20:22:43.791Z,3.38
2022-12-27T20:25:12.557Z,3.40
2022-12-27T20:27:41.354Z,3.26
2022-12-27T20:30:11.101Z,3.37
2022-12-27T20:32:39.830Z,3.45
2022-12-27T20:35:12.798Z,3.41
2022-12-27T20:37:43.413Z,3.45
2022-12-27T20:40:14.897Z,3.43
2022-12-27T20:42:43.257Z,3.39
2022-12-27T20:45:12.874Z,3.47
2022-12-27T20:47:41.339Z,3.40
2022-12-27T20:50:10.966Z,3.27
2022-12-27T20:52:39.359Z,3.30
2022-12-27T20:55:11.468Z,3.36
2022-12-27T20:57:42.901Z,3.11
2022-12-27T21:00:14.222Z,3.15
2022-12-27T21:02:42.922Z,3.25
2022-12-27T21:05:12.973Z,3.31
2022-12-27T21:07:42.286Z,3.19
2022-12-27T21:10:13.071Z,3.20
2022-12-27T21:12:41.392Z,3.25
2022-12-27T21:15:10.999Z,3.35
2022-12-27T21:17:40.120Z,3.19
2022-12-27T21:20:11.817Z,3.28
2022-12-27T21:22:41.662Z,3.31
2022-12-27T21:25:12.290Z,3.30
2022-12-27T21:27:40.436Z,3.24
2022-12-27T21:30:10.979Z,3.28
2022-12-27T21:32:39.423Z,3.32
2022-12-27T21:35:08.997Z,3.44
2022-12-27T21:37:40.703Z,3.36
2022-12-27T21:40:12.180Z,3.37
2022-12-27T21:42:45.172Z,3.36
2022-12-27T21:45:13.575Z,3.20
2022-12-27T21:47:45.581Z,3.18
2022-12-27T21:50:14.706Z,3.27
2022-12-27T21:52:46.821Z,3.29
2022-12-27T21:55:16.300Z,3.21
2022-12-27T21:57:46.971Z,3.28
2022-12-27T22:00:17.138Z,3.30
2022-12-27T22:02:45.620Z,3.26
2022-12-27T22:05:16.535Z,3.32
2022-12-27T22:07:45.468Z,3.16
2022-12-27T22:10:14.229Z,3.13
2022-12-27T22:12:42.598Z,3.19
2022-12-27T22:15:17.671Z,3.14
2022-12-27T22:17:46.058Z,3.23
2022-12-27T22:20:14.964Z,3.30
2022-12-27T22:22:43.642Z,3.26
2022-12-27T22:25:13.317Z,3.33
2022-12-27T22:27:41.674Z,3.33
2022-12-27T22:30:12.690Z,3.31
2022-12-27T22:32:44.397Z,3.28
2022-12-27T22:35:15.038Z,3.28
2022-12-27T22:37:43.450Z,3.10
2022-12-27T22:40:31.175Z,3.12
2022-12-27T22:43:02.351Z,3.12
2022-12-27T22:45:32.764Z,3.00
2022-12-27T22:48:01.078Z,3.06
2022-12-27T22:50:29.455Z,2.96
2022-12-27T22:52:57.849Z,3.03
2022-12-27T22:55:26.015Z,3.09
2022-12-27T22:57:54.405Z,3.14
2022-12-27T23:00:23.180Z,3.07
2022-12-27T23:02:53.241Z,3.05
2022-12-27T23:05:25.762Z,3.02
2022-12-27T23:08:03.313Z,3.07
2022-12-27T23:10:32.989Z,2.94
2022-12-27T23:13:04.159Z,2.91
2022-12-27T23:15:32.533Z,3.07
2022-12-27T23:18:04.027Z,3.12
2022-12-27T23:20:34.995Z,3.35
2022-12-27T23:23:03.388Z,3.38
2022-12-27T23:25:32.864Z,3.42
2022-12-27T23:28:01.385Z,3.41
2022-12-27T23:30:29.887Z,3.48
2022-12-27T23:32:58.420Z,3.49
2022-12-27T23:35:28.396Z,3.55
2022-12-27T23:37:56.849Z,3.52
2022-12-27T23:40:25.039Z,3.49
2022-12-27T23:42:53.522Z,3.54
2022-12-27T23:45:21.876Z,3.54
2022-12-27T23:47:52.345Z,3.56
2022-12-27T23:50:21.210Z,3.55
2022-12-27T23:52:51.711Z,3.51
2022-12-27T23:55:20.377Z,3.60
2022-12-27T23:57:49.639Z,3.47
